sensor_id;sensor_type;location;lat;lon;timestamp;P1;durP1;ratioP1;P2;durP2;ratioP2
18783;SDS011;9520;50.954;6.968;2022-09-14T00:00:18;1.33;;;0.80;;
18783;SDS011;9520;50.954;6.968;2022-09-14T00:00:41;1.00;;;0.65;;
18783;SDS011;9520;50.954;6.968;2022-09-14T00:01:05;0.95;;;0.88;;
18783;SDS011;9520;50.954;6.968;2022-09-14T00:01:45;0.60;;;0.60;;
18783;SDS011;9520;50.954;6.968;2022-09-14T00:02:09;2.72;;;0.82;;
18783;SDS011;9520;50.954;6.968;2022-09-14T00:02:30;2.67;;;0.88;;
18783;SDS011;9520;50.954;6.968;2022-09-14T00:02:53;3.25;;;0.75;;
18783;SDS011;9520;50.954;6.968;2022-09-14T00:03:15;3.15;;;0.75;;
18783;SDS011;9520;50.954;6.968;2022-09-14T00:03:38;0.60;;;0.60;;
18783;SDS011;9520;50.954;6.968;2022-09-14T00:04:02;0.82;;;0.65;;
18783;SDS011;9520;50.954;6.968;2022-09-14T00:04:25;1.05;;;0.88;;
18783;SDS011;9520;50.954;6.968;2022-09-14T00:04:47;1.30;;;1.02;;
18783;SDS011;9520;50.954;6.968;2022-09-14T00:05:11;0.82;;;0.75;;
18783;SDS011;9520;50.954;6.968;2022-09-14T00:05:34;1.13;;;0.88;;
18783;SDS011;9520;50.954;6.968;2022-09-14T00:05:56;1.45;;;0.80;;
18783;SDS011;9520;50.954;6.968;2022-09-14T00:06:24;2.00;;;1.08;;
18783;SDS011;9520;50.954;6.968;2022-09-14T00:06:47;3.88;;;0.88;;
18783;SDS011;9520;50.954;6.968;2022-09-14T00:07:09;4.10;;;0.95;;
18783;SDS011;9520;50.954;6.968;2022-09-14T00:07:31;0.85;;;0.70;;
18783;SDS011;9520;50.954;6.968;2022-09-14T00:07:52;1.15;;;0.75;;
18783;SDS011;9520;50.954;6.968;2022-09-14T00:08:15;0.82;;;0.77;;
18783;SDS011;9520;50.954;6.968;2022-09-14T00:08:37;1.05;;;0.95;;
18783;SDS011;9520;50.954;6.968;2022-09-14T00:08:59;1.10;;;1.00;;
18783;SDS011;9520;50.954;6.968;2022-09-14T00:09:22;1.55;;;0.70;;
18783;SDS011;9520;50.954;6.968;2022-09-14T00:09:46;1.63;;;0.73;;
18783;SDS011;9520;50.954;6.968;2022-09-14T00:10:09;0.88;;;0.80;;
18783;SDS011;9520;50.954;6.968;2022-09-14T00:10:31;5.78;;;1.20;;
18783;SDS011;9520;50.954;6.968;2022-09-14T00:10:53;4.28;;;0.90;;
18783;SDS011;9520;50.954;6.968;2022-09-14T00:11:14;0.73;;;0.73;;
18783;SDS011;9520;50.954;6.968;2022-09-14T00:11:37;1.50;;;0.95;;
18783;SDS011;9520;50.954;6.968;2022-09-14T00:11:58;0.88;;;0.80;;
18783;SDS011;9520;50.954;6.968;2022-09-14T00:12:22;1.13;;;0.68;;
18783;SDS011;9520;50.954;6.968;2022-09-14T00:12:45;3.55;;;0.80;;
18783;SDS011;9520;50.954;6.968;2022-09-14T00:13:07;3.00;;;0.70;;
18783;SDS011;9520;50.954;6.968;2022-09-14T00:13:30;1.48;;;1.10;;
18783;SDS011;9520;50.954;6.968;2022-09-14T00:13:52;2.17;;;1.27;;
18783;SDS011;9520;50.954;6.968;2022-09-14T00:14:14;1.17;;;0.95;;
18783;SDS011;9520;50.954;6.968;2022-09-14T00:14:37;1.55;;;1.02;;
18783;SDS011;9520;50.954;6.968;2022-09-14T00:14:59;1.27;;;0.77;;
18783;SDS011;9520;50.954;6.968;2022-09-14T00:15:21;1.30;;;0.80;;
18783;SDS011;9520;50.954;6.968;2022-09-14T00:15:42;1.25;;;0.85;;
18783;SDS011;9520;50.954;6.968;2022-09-14T00:16:05;2.42;;;1.20;;
18783;SDS011;9520;50.954;6.968;2022-09-14T00:16:34;1.27;;;1.02;;
18783;SDS011;9520;50.954;6.968;2022-09-14T00:16:56;1.13;;;0.98;;
18783;SDS011;9520;50.954;6.968;2022-09-14T00:17:18;2.17;;;1.20;;
18783;SDS011;9520;50.954;6.968;2022-09-14T00:17:41;1.08;;;0.90;;
18783;SDS011;9520;50.954;6.968;2022-09-14T00:18:04;1.08;;;0.93;;
18783;SDS011;9520;50.954;6.968;2022-09-14T00:18:26;1.45;;;1.20;;
18783;SDS011;9520;50.954;6.968;2022-09-14T00:18:49;1.63;;;1.00;;
18783;SDS011;9520;50.954;6.968;2022-09-14T00:19:15;2.10;;;0.98;;
18783;SDS011;9520;50.954;6.968;2022-09-14T00:19:39;1.13;;;0.77;;
18783;SDS011;9520;50.954;6.968;2022-09-14T00:20:01;1.10;;;0.95;;
18783;SDS011;9520;50.954;6.968;2022-09-14T00:20:22;0.90;;;0.77;;
18783;SDS011;9520;50.954;6.968;2022-09-14T00:20:44;1.10;;;0.80;;
18783;SDS011;9520;50.954;6.968;2022-09-14T00:21:06;1.55;;;0.90;;
18783;SDS011;9520;50.954;6.968;2022-09-14T00:21:31;1.02;;;0.90;;
18783;SDS011;9520;50.954;6.968;2022-09-14T00:21:55;2.15;;;0.80;;
18783;SDS011;9520;50.954;6.968;2022-09-14T00:22:18;1.80;;;1.00;;
18783;SDS011;9520;50.954;6.968;2022-09-14T00:22:41;1.60;;;0.88;;
18783;SDS011;9520;50.954;6.968;2022-09-14T00:23:03;1.23;;;0.77;;
18783;SDS011;9520;50.954;6.968;2022-09-14T00:23:25;2.08;;;1.00;;
18783;SDS011;9520;50.954;6.968;2022-09-14T00:23:46;1.67;;;1.08;;
18783;SDS011;9520;50.954;6.968;2022-09-14T00:24:33;0.80;;;0.80;;
18783;SDS011;9520;50.954;6.968;2022-09-14T00:24:56;1.45;;;1.00;;
18783;SDS011;9520;50.954;6.968;2022-09-14T00:25:17;1.73;;;1.00;;
18783;SDS011;9520;50.954;6.968;2022-09-14T00:25:39;2.20;;;0.80;;
18783;SDS011;9520;50.954;6.968;2022-09-14T00:26:01;0.93;;;0.68;;
18783;SDS011;9520;50.954;6.968;2022-09-14T00:26:26;1.10;;;0.90;;
18783;SDS011;9520;50.954;6.968;2022-09-14T00:26:51;1.55;;;1.05;;
18783;SDS011;9520;50.954;6.968;2022-09-14T00:27:15;0.98;;;0.75;;
18783;SDS011;9520;50.954;6.968;2022-09-14T00:27:36;1.80;;;1.10;;
18783;SDS011;9520;50.954;6.968;2022-09-14T00:27:58;1.65;;;1.00;;
18783;SDS011;9520;50.954;6.968;2022-09-14T00:28:21;1.90;;;1.00;;
18783;SDS011;9520;50.954;6.968;2022-09-14T00:28:44;2.03;;;0.95;;
18783;SDS011;9520;50.954;6.968;2022-09-14T00:29:07;0.70;;;0.63;;
18783;SDS011;9520;50.954;6.968;2022-09-14T00:29:29;1.02;;;0.88;;
18783;SDS011;9520;50.954;6.968;2022-09-14T00:29:53;1.38;;;1.00;;
18783;SDS011;9520;50.954;6.968;2022-09-14T00:30:15;1.55;;;1.00;;
18783;SDS011;9520;50.954;6.968;2022-09-14T00:30:39;2.92;;;1.17;;
18783;SDS011;9520;50.954;6.968;2022-09-14T00:31:02;2.45;;;1.20;;
18783;SDS011;9520;50.954;6.968;2022-09-14T00:31:24;3.50;;;1.20;;
18783;SDS011;9520;50.954;6.968;2022-09-14T00:31:47;1.45;;;1.00;;
18783;SDS011;9520;50.954;6.968;2022-09-14T00:32:09;1.83;;;0.80;;
18783;SDS011;9520;50.954;6.968;2022-09-14T00:32:30;1.55;;;0.80;;
18783;SDS011;9520;50.954;6.968;2022-09-14T00:32:52;1.52;;;0.85;;
18783;SDS011;9520;50.954;6.968;2022-09-14T00:33:16;1.48;;;1.20;;
18783;SDS011;9520;50.954;6.968;2022-09-14T00:33:39;0.93;;;0.82;;
18783;SDS011;9520;50.954;6.968;2022-09-14T00:34:02;1.60;;;0.90;;
18783;SDS011;9520;50.954;6.968;2022-09-14T00:34:25;2.90;;;1.20;;
18783;SDS011;9520;50.954;6.968;2022-09-14T00:34:48;3.50;;;1.23;;
18783;SDS011;9520;50.954;6.968;2022-09-14T00:35:10;6.80;;;1.38;;
18783;SDS011;9520;50.954;6.968;2022-09-14T00:35:33;1.00;;;0.90;;
18783;SDS011;9520;50.954;6.968;2022-09-14T00:35:58;2.50;;;1.10;;
18783;SDS011;9520;50.954;6.968;2022-09-14T00:36:25;1.48;;;1.10;;
18783;SDS011;9520;50.954;6.968;2022-09-14T00:36:49;2.22;;;1.33;;
18783;SDS011;9520;50.954;6.968;2022-09-14T00:37:11;1.42;;;1.23;;
18783;SDS011;9520;50.954;6.968;2022-09-14T00:37:34;2.33;;;1.38;;
18783;SDS011;9520;50.954;6.968;2022-09-14T00:37:55;1.65;;;1.20;;
18783;SDS011;9520;50.954;6.968;2022-09-14T00:38:18;1.27;;;1.05;;
18783;SDS011;9520;50.954;6.968;2022-09-14T00:38:40;2.28;;;1.00;;
18783;SDS011;9520;50.954;6.968;2022-09-14T00:39:02;1.20;;;1.02;;
18783;SDS011;9520;50.954;6.968;2022-09-14T00:39:25;1.60;;;1.00;;
18783;SDS011;9520;50.954;6.968;2022-09-14T00:39:49;0.98;;;0.90;;
18783;SDS011;9520;50.954;6.968;2022-09-14T00:40:11;1.40;;;1.08;;
18783;SDS011;9520;50.954;6.968;2022-09-14T00:40:33;1.73;;;1.10;;
18783;SDS011;9520;50.954;6.968;2022-09-14T00:40:57;2.47;;;1.40;;
18783;SDS011;9520;50.954;6.968;2022-09-14T00:41:19;1.50;;;1.00;;
18783;SDS011;9520;50.954;6.968;2022-09-14T00:41:46;1.80;;;1.37;;
18783;SDS011;9520;50.954;6.968;2022-09-14T00:42:09;1.60;;;1.17;;
18783;SDS011;9520;50.954;6.968;2022-09-14T00:42:39;2.70;;;1.33;;
18783;SDS011;9520;50.954;6.968;2022-09-14T00:43:02;1.30;;;0.90;;
18783;SDS011;9520;50.954;6.968;2022-09-14T00:43:24;1.65;;;1.17;;
18783;SDS011;9520;50.954;6.968;2022-09-14T00:43:52;3.00;;;1.25;;
18783;SDS011;9520;50.954;6.968;2022-09-14T00:45:17;1.67;;;1.03;;
18783;SDS011;9520;50.954;6.968;2022-09-14T00:45:41;1.85;;;0.98;;
18783;SDS011;9520;50.954;6.968;2022-09-14T00:46:03;5.88;;;1.30;;
18783;SDS011;9520;50.954;6.968;2022-09-14T00:46:25;1.92;;;1.02;;
18783;SDS011;9520;50.954;6.968;2022-09-14T00:46:50;1.58;;;1.17;;
18783;SDS011;9520;50.954;6.968;2022-09-14T00:47:15;4.18;;;1.33;;
18783;SDS011;9520;50.954;6.968;2022-09-14T00:47:38;3.65;;;1.27;;
18783;SDS011;9520;50.954;6.968;2022-09-14T00:48:01;2.65;;;1.27;;
18783;SDS011;9520;50.954;6.968;2022-09-14T00:48:23;2.10;;;1.30;;
18783;SDS011;9520;50.954;6.968;2022-09-14T00:48:45;1.52;;;1.15;;
18783;SDS011;9520;50.954;6.968;2022-09-14T00:49:08;1.33;;;0.93;;
18783;SDS011;9520;50.954;6.968;2022-09-14T00:49:34;1.02;;;0.98;;
18783;SDS011;9520;50.954;6.968;2022-09-14T00:49:58;2.38;;;1.13;;
18783;SDS011;9520;50.954;6.968;2022-09-14T00:50:24;4.00;;;1.00;;
18783;SDS011;9520;50.954;6.968;2022-09-14T00:50:46;1.90;;;1.25;;
18783;SDS011;9520;50.954;6.968;2022-09-14T00:51:08;1.17;;;1.08;;
18783;SDS011;9520;50.954;6.968;2022-09-14T00:51:30;2.47;;;1.35;;
18783;SDS011;9520;50.954;6.968;2022-09-14T00:51:55;2.10;;;1.33;;
18783;SDS011;9520;50.954;6.968;2022-09-14T00:52:24;1.77;;;1.00;;
18783;SDS011;9520;50.954;6.968;2022-09-14T00:52:48;3.28;;;0.98;;
18783;SDS011;9520;50.954;6.968;2022-09-14T00:53:11;3.80;;;1.20;;
18783;SDS011;9520;50.954;6.968;2022-09-14T00:53:33;1.55;;;1.00;;
18783;SDS011;9520;50.954;6.968;2022-09-14T00:53:55;2.40;;;1.20;;
18783;SDS011;9520;50.954;6.968;2022-09-14T00:54:17;1.30;;;1.00;;
18783;SDS011;9520;50.954;6.968;2022-09-14T00:54:39;1.48;;;1.10;;
18783;SDS011;9520;50.954;6.968;2022-09-14T00:55:04;2.35;;;1.20;;
18783;SDS011;9520;50.954;6.968;2022-09-14T00:55:29;2.78;;;1.35;;
18783;SDS011;9520;50.954;6.968;2022-09-14T00:55:51;2.85;;;1.33;;
18783;SDS011;9520;50.954;6.968;2022-09-14T00:56:15;1.55;;;1.17;;
18783;SDS011;9520;50.954;6.968;2022-09-14T00:56:37;1.13;;;0.80;;
18783;SDS011;9520;50.954;6.968;2022-09-14T00:56:59;2.00;;;1.03;;
18783;SDS011;9520;50.954;6.968;2022-09-14T00:57:26;2.88;;;1.02;;
18783;SDS011;9520;50.954;6.968;2022-09-14T00:57:52;4.03;;;1.50;;
18783;SDS011;9520;50.954;6.968;2022-09-14T00:58:15;1.17;;;0.90;;
18783;SDS011;9520;50.954;6.968;2022-09-14T00:58:37;2.15;;;1.65;;
18783;SDS011;9520;50.954;6.968;2022-09-14T00:58:59;2.13;;;1.45;;
18783;SDS011;9520;50.954;6.968;2022-09-14T00:59:28;2.33;;;1.30;;
18783;SDS011;9520;50.954;6.968;2022-09-14T00:59:52;2.20;;;1.17;;
18783;SDS011;9520;50.954;6.968;2022-09-14T01:00:17;2.80;;;1.27;;
18783;SDS011;9520;50.954;6.968;2022-09-14T01:00:41;3.00;;;1.45;;
18783;SDS011;9520;50.954;6.968;2022-09-14T01:01:03;3.28;;;1.40;;
18783;SDS011;9520;50.954;6.968;2022-09-14T01:01:25;1.98;;;1.38;;
18783;SDS011;9520;50.954;6.968;2022-09-14T01:01:48;3.80;;;1.38;;
18783;SDS011;9520;50.954;6.968;2022-09-14T01:02:11;2.10;;;1.38;;
18783;SDS011;9520;50.954;6.968;2022-09-14T01:02:36;2.80;;;1.42;;
18783;SDS011;9520;50.954;6.968;2022-09-14T01:02:58;2.90;;;1.40;;
18783;SDS011;9520;50.954;6.968;2022-09-14T01:03:22;2.45;;;1.40;;
18783;SDS011;9520;50.954;6.968;2022-09-14T01:03:43;2.03;;;1.20;;
18783;SDS011;9520;50.954;6.968;2022-09-14T01:04:05;2.67;;;1.40;;
18783;SDS011;9520;50.954;6.968;2022-09-14T01:04:27;3.22;;;1.55;;
18783;SDS011;9520;50.954;6.968;2022-09-14T01:04:49;2.10;;;1.20;;
18783;SDS011;9520;50.954;6.968;2022-09-14T01:05:12;2.38;;;1.13;;
18783;SDS011;9520;50.954;6.968;2022-09-14T01:05:38;2.22;;;1.10;;
18783;SDS011;9520;50.954;6.968;2022-09-14T01:06:13;3.53;;;1.43;;
18783;SDS011;9520;50.954;6.968;2022-09-14T01:06:40;3.45;;;1.67;;
18783;SDS011;9520;50.954;6.968;2022-09-14T01:07:13;2.33;;;1.38;;
18783;SDS011;9520;50.954;6.968;2022-09-14T01:07:51;1.90;;;1.30;;
18783;SDS011;9520;50.954;6.968;2022-09-14T01:08:34;2.53;;;1.67;;
18783;SDS011;9520;50.954;6.968;2022-09-14T01:09:08;1.48;;;1.38;;
18783;SDS011;9520;50.954;6.968;2022-09-14T01:09:39;2.37;;;1.40;;
18783;SDS011;9520;50.954;6.968;2022-09-14T01:10:08;6.40;;;1.77;;
18783;SDS011;9520;50.954;6.968;2022-09-14T01:10:43;3.28;;;1.90;;
18783;SDS011;9520;50.954;6.968;2022-09-14T01:11:23;2.97;;;1.50;;
18783;SDS011;9520;50.954;6.968;2022-09-14T01:12:03;4.40;;;1.27;;
18783;SDS011;9520;50.954;6.968;2022-09-14T01:12:37;1.75;;;1.08;;
18783;SDS011;9520;50.954;6.968;2022-09-14T01:13:12;3.55;;;1.60;;
18783;SDS011;9520;50.954;6.968;2022-09-14T01:13:47;3.63;;;1.73;;
18783;SDS011;9520;50.954;6.968;2022-09-14T01:14:21;5.53;;;1.58;;
18783;SDS011;9520;50.954;6.968;2022-09-14T01:14:53;4.07;;;1.63;;
18783;SDS011;9520;50.954;6.968;2022-09-14T01:15:24;2.17;;;1.65;;
18783;SDS011;9520;50.954;6.968;2022-09-14T01:15:51;3.30;;;1.88;;
18783;SDS011;9520;50.954;6.968;2022-09-14T01:16:29;2.22;;;1.25;;
18783;SDS011;9520;50.954;6.968;2022-09-14T01:16:56;3.92;;;1.70;;
18783;SDS011;9520;50.954;6.968;2022-09-14T01:17:26;3.58;;;1.67;;
18783;SDS011;9520;50.954;6.968;2022-09-14T01:17:56;3.55;;;1.60;;
18783;SDS011;9520;50.954;6.968;2022-09-14T01:18:26;1.65;;;1.30;;
18783;SDS011;9520;50.954;6.968;2022-09-14T01:18:54;2.67;;;1.52;;
18783;SDS011;9520;50.954;6.968;2022-09-14T01:19:20;1.67;;;1.33;;
18783;SDS011;9520;50.954;6.968;2022-09-14T01:19:53;3.65;;;1.95;;
18783;SDS011;9520;50.954;6.968;2022-09-14T01:20:31;1.63;;;1.33;;
18783;SDS011;9520;50.954;6.968;2022-09-14T01:21:06;3.45;;;1.55;;
18783;SDS011;9520;50.954;6.968;2022-09-14T01:21:31;3.08;;;1.70;;
18783;SDS011;9520;50.954;6.968;2022-09-14T01:21:55;2.90;;;1.42;;
18783;SDS011;9520;50.954;6.968;2022-09-14T01:22:31;2.53;;;1.63;;
18783;SDS011;9520;50.954;6.968;2022-09-14T01:22:59;2.70;;;1.48;;
18783;SDS011;9520;50.954;6.968;2022-09-14T01:23:33;1.80;;;1.10;;
18783;SDS011;9520;50.954;6.968;2022-09-14T01:24:02;1.52;;;1.30;;
18783;SDS011;9520;50.954;6.968;2022-09-14T01:24:36;5.88;;;1.60;;
18783;SDS011;9520;50.954;6.968;2022-09-14T01:25:06;2.38;;;1.38;;
18783;SDS011;9520;50.954;6.968;2022-09-14T01:26:46;1.67;;;1.23;;
18783;SDS011;9520;50.954;6.968;2022-09-14T01:27:23;4.05;;;1.58;;
18783;SDS011;9520;50.954;6.968;2022-09-14T01:27:49;1.60;;;1.30;;
18783;SDS011;9520;50.954;6.968;2022-09-14T01:28:14;2.50;;;1.40;;
18783;SDS011;9520;50.954;6.968;2022-09-14T01:28:44;3.10;;;1.05;;
18783;SDS011;9520;50.954;6.968;2022-09-14T01:29:11;2.35;;;1.15;;
18783;SDS011;9520;50.954;6.968;2022-09-14T01:29:39;3.95;;;1.90;;
18783;SDS011;9520;50.954;6.968;2022-09-14T01:30:06;2.05;;;1.15;;
18783;SDS011;9520;50.954;6.968;2022-09-14T01:30:30;2.70;;;1.52;;
18783;SDS011;9520;50.954;6.968;2022-09-14T01:30:54;2.83;;;1.75;;
18783;SDS011;9520;50.954;6.968;2022-09-14T01:31:19;3.50;;;1.65;;
18783;SDS011;9520;50.954;6.968;2022-09-14T01:31:49;3.15;;;1.67;;
18783;SDS011;9520;50.954;6.968;2022-09-14T01:32:17;3.63;;;1.85;;
18783;SDS011;9520;50.954;6.968;2022-09-14T01:32:43;2.60;;;1.35;;
18783;SDS011;9520;50.954;6.968;2022-09-14T01:33:13;3.45;;;1.95;;
18783;SDS011;9520;50.954;6.968;2022-09-14T01:33:38;2.25;;;1.50;;
18783;SDS011;9520;50.954;6.968;2022-09-14T01:34:06;1.70;;;1.50;;
18783;SDS011;9520;50.954;6.968;2022-09-14T01:34:33;2.47;;;1.50;;
18783;SDS011;9520;50.954;6.968;2022-09-14T01:35:03;3.95;;;1.15;;
18783;SDS011;9520;50.954;6.968;2022-09-14T01:35:36;3.67;;;1.70;;
18783;SDS011;9520;50.954;6.968;2022-09-14T01:36:03;3.17;;;1.35;;
18783;SDS011;9520;50.954;6.968;2022-09-14T01:36:29;1.60;;;1.40;;
18783;SDS011;9520;50.954;6.968;2022-09-14T01:36:56;1.25;;;1.13;;
18783;SDS011;9520;50.954;6.968;2022-09-14T01:37:23;2.35;;;1.60;;
18783;SDS011;9520;50.954;6.968;2022-09-14T01:37:49;4.43;;;1.77;;
18783;SDS011;9520;50.954;6.968;2022-09-14T01:38:16;2.35;;;1.23;;
18783;SDS011;9520;50.954;6.968;2022-09-14T01:38:42;3.65;;;1.65;;
18783;SDS011;9520;50.954;6.968;2022-09-14T01:39:08;5.55;;;2.20;;
18783;SDS011;9520;50.954;6.968;2022-09-14T01:39:31;4.95;;;1.58;;
18783;SDS011;9520;50.954;6.968;2022-09-14T01:39:56;2.25;;;1.67;;
18783;SDS011;9520;50.954;6.968;2022-09-14T01:40:22;2.53;;;1.60;;
18783;SDS011;9520;50.954;6.968;2022-09-14T01:40:49;4.65;;;1.80;;
18783;SDS011;9520;50.954;6.968;2022-09-14T01:41:13;4.88;;;2.00;;
18783;SDS011;9520;50.954;6.968;2022-09-14T01:41:40;3.42;;;1.90;;
18783;SDS011;9520;50.954;6.968;2022-09-14T01:42:02;3.25;;;1.70;;
18783;SDS011;9520;50.954;6.968;2022-09-14T01:42:28;2.78;;;1.45;;
18783;SDS011;9520;50.954;6.968;2022-09-14T01:42:54;2.25;;;1.50;;
18783;SDS011;9520;50.954;6.968;2022-09-14T01:43:19;2.40;;;1.60;;
18783;SDS011;9520;50.954;6.968;2022-09-14T01:43:45;2.05;;;1.33;;
18783;SDS011;9520;50.954;6.968;2022-09-14T01:44:11;3.60;;;1.33;;
18783;SDS011;9520;50.954;6.968;2022-09-14T01:44:39;2.42;;;1.40;;
18783;SDS011;9520;50.954;6.968;2022-09-14T01:45:06;2.53;;;1.80;;
18783;SDS011;9520;50.954;6.968;2022-09-14T01:45:31;2.55;;;1.40;;
18783;SDS011;9520;50.954;6.968;2022-09-14T01:45:55;2.30;;;1.05;;
18783;SDS011;9520;50.954;6.968;2022-09-14T01:46:22;1.80;;;1.25;;
18783;SDS011;9520;50.954;6.968;2022-09-14T01:46:47;3.58;;;1.63;;
18783;SDS011;9520;50.954;6.968;2022-09-14T01:47:14;2.33;;;1.65;;
18783;SDS011;9520;50.954;6.968;2022-09-14T01:47:38;2.92;;;1.85;;
18783;SDS011;9520;50.954;6.968;2022-09-14T01:48:09;2.15;;;1.48;;
18783;SDS011;9520;50.954;6.968;2022-09-14T01:48:35;1.80;;;1.35;;
18783;SDS011;9520;50.954;6.968;2022-09-14T01:49:00;3.20;;;1.50;;
18783;SDS011;9520;50.954;6.968;2022-09-14T01:49:29;2.95;;;1.40;;
18783;SDS011;9520;50.954;6.968;2022-09-14T01:49:56;3.85;;;1.52;;
18783;SDS011;9520;50.954;6.968;2022-09-14T01:50:23;3.08;;;1.85;;
18783;SDS011;9520;50.954;6.968;2022-09-14T01:50:49;5.85;;;1.70;;
18783;SDS011;9520;50.954;6.968;2022-09-14T01:51:16;4.40;;;2.15;;
18783;SDS011;9520;50.954;6.968;2022-09-14T01:51:44;5.53;;;2.00;;
18783;SDS011;9520;50.954;6.968;2022-09-14T01:52:11;8.82;;;2.17;;
18783;SDS011;9520;50.954;6.968;2022-09-14T01:52:39;3.63;;;1.50;;
18783;SDS011;9520;50.954;6.968;2022-09-14T01:53:04;2.75;;;1.75;;
18783;SDS011;9520;50.954;6.968;2022-09-14T01:53:31;6.80;;;2.40;;
18783;SDS011;9520;50.954;6.968;2022-09-14T01:53:59;5.82;;;1.55;;
18783;SDS011;9520;50.954;6.968;2022-09-14T01:54:29;5.28;;;1.95;;
18783;SDS011;9520;50.954;6.968;2022-09-14T01:54:56;2.60;;;1.75;;
18783;SDS011;9520;50.954;6.968;2022-09-14T01:55:23;3.00;;;1.67;;
18783;SDS011;9520;50.954;6.968;2022-09-14T01:55:50;5.30;;;1.92;;
18783;SDS011;9520;50.954;6.968;2022-09-14T01:56:17;3.13;;;1.52;;
18783;SDS011;9520;50.954;6.968;2022-09-14T01:56:44;4.07;;;1.70;;
18783;SDS011;9520;50.954;6.968;2022-09-14T01:57:11;2.33;;;1.50;;
18783;SDS011;9520;50.954;6.968;2022-09-14T01:57:41;2.50;;;1.73;;
18783;SDS011;9520;50.954;6.968;2022-09-14T01:58:07;2.30;;;1.60;;
18783;SDS011;9520;50.954;6.968;2022-09-14T01:58:33;2.00;;;1.42;;
18783;SDS011;9520;50.954;6.968;2022-09-14T01:59:02;3.85;;;1.45;;
18783;SDS011;9520;50.954;6.968;2022-09-14T01:59:32;1.73;;;1.23;;
18783;SDS011;9520;50.954;6.968;2022-09-14T01:59:58;2.10;;;1.52;;
18783;SDS011;9520;50.954;6.968;2022-09-14T02:00:25;6.95;;;2.08;;
18783;SDS011;9520;50.954;6.968;2022-09-14T02:00:48;1.52;;;1.38;;
18783;SDS011;9520;50.954;6.968;2022-09-14T02:01:14;4.72;;;1.92;;
18783;SDS011;9520;50.954;6.968;2022-09-14T02:01:43;4.22;;;1.90;;
18783;SDS011;9520;50.954;6.968;2022-09-14T02:02:12;4.13;;;1.80;;
18783;SDS011;9520;50.954;6.968;2022-09-14T02:02:40;3.85;;;1.77;;
18783;SDS011;9520;50.954;6.968;2022-09-14T02:03:09;3.85;;;1.90;;
18783;SDS011;9520;50.954;6.968;2022-09-14T02:03:35;2.38;;;1.80;;
18783;SDS011;9520;50.954;6.968;2022-09-14T02:04:01;2.00;;;1.50;;
18783;SDS011;9520;50.954;6.968;2022-09-14T02:04:30;4.28;;;1.90;;
18783;SDS011;9520;50.954;6.968;2022-09-14T02:04:57;2.05;;;1.80;;
18783;SDS011;9520;50.954;6.968;2022-09-14T02:05:25;8.43;;;1.60;;
18783;SDS011;9520;50.954;6.968;2022-09-14T02:05:51;13.23;;;2.25;;
18783;SDS011;9520;50.954;6.968;2022-09-14T02:06:22;3.13;;;1.80;;
18783;SDS011;9520;50.954;6.968;2022-09-14T02:06:48;4.05;;;2.10;;
18783;SDS011;9520;50.954;6.968;2022-09-14T02:07:11;4.68;;;1.50;;
18783;SDS011;9520;50.954;6.968;2022-09-14T02:07:34;4.25;;;1.85;;
18783;SDS011;9520;50.954;6.968;2022-09-14T02:07:57;2.92;;;1.73;;
18783;SDS011;9520;50.954;6.968;2022-09-14T02:08:20;2.53;;;1.35;;
18783;SDS011;9520;50.954;6.968;2022-09-14T02:08:43;4.20;;;2.05;;
18783;SDS011;9520;50.954;6.968;2022-09-14T02:09:05;8.02;;;1.90;;
18783;SDS011;9520;50.954;6.968;2022-09-14T02:09:29;3.75;;;1.95;;
18783;SDS011;9520;50.954;6.968;2022-09-14T02:09:52;2.75;;;1.75;;
18783;SDS011;9520;50.954;6.968;2022-09-14T02:10:15;2.30;;;1.50;;
18783;SDS011;9520;50.954;6.968;2022-09-14T02:10:37;3.95;;;1.80;;
18783;SDS011;9520;50.954;6.968;2022-09-14T02:10:59;5.45;;;1.90;;
18783;SDS011;9520;50.954;6.968;2022-09-14T02:11:24;2.58;;;1.70;;
18783;SDS011;9520;50.954;6.968;2022-09-14T02:11:45;4.57;;;2.10;;
18783;SDS011;9520;50.954;6.968;2022-09-14T02:12:07;3.60;;;1.73;;
18783;SDS011;9520;50.954;6.968;2022-09-14T02:12:29;4.38;;;1.92;;
18783;SDS011;9520;50.954;6.968;2022-09-14T02:12:52;2.95;;;1.83;;
18783;SDS011;9520;50.954;6.968;2022-09-14T02:13:16;2.92;;;1.75;;
18783;SDS011;9520;50.954;6.968;2022-09-14T02:13:38;4.63;;;2.05;;
18783;SDS011;9520;50.954;6.968;2022-09-14T02:14:00;3.88;;;2.10;;
18783;SDS011;9520;50.954;6.968;2022-09-14T02:14:22;3.60;;;1.73;;
18783;SDS011;9520;50.954;6.968;2022-09-14T02:14:44;2.72;;;1.58;;
18783;SDS011;9520;50.954;6.968;2022-09-14T02:15:08;4.80;;;1.85;;
18783;SDS011;9520;50.954;6.968;2022-09-14T02:15:33;3.83;;;2.05;;
18783;SDS011;9520;50.954;6.968;2022-09-14T02:15:56;2.83;;;1.98;;
18783;SDS011;9520;50.954;6.968;2022-09-14T02:16:17;2.50;;;1.88;;
18783;SDS011;9520;50.954;6.968;2022-09-14T02:16:42;2.42;;;1.70;;
18783;SDS011;9520;50.954;6.968;2022-09-14T02:17:07;1.77;;;1.40;;
18783;SDS011;9520;50.954;6.968;2022-09-14T02:17:29;3.80;;;1.73;;
18783;SDS011;9520;50.954;6.968;2022-09-14T02:17:52;3.78;;;2.00;;
18783;SDS011;9520;50.954;6.968;2022-09-14T02:18:15;3.03;;;2.05;;
18783;SDS011;9520;50.954;6.968;2022-09-14T02:18:37;2.63;;;1.63;;
18783;SDS011;9520;50.954;6.968;2022-09-14T02:19:00;2.78;;;1.27;;
18783;SDS011;9520;50.954;6.968;2022-09-14T02:19:22;2.80;;;1.30;;
18783;SDS011;9520;50.954;6.968;2022-09-14T02:19:46;1.92;;;1.20;;
18783;SDS011;9520;50.954;6.968;2022-09-14T02:20:13;2.38;;;1.25;;
18783;SDS011;9520;50.954;6.968;2022-09-14T02:20:43;2.60;;;1.43;;
18783;SDS011;9520;50.954;6.968;2022-09-14T02:21:10;5.22;;;1.95;;
18783;SDS011;9520;50.954;6.968;2022-09-14T02:21:34;4.18;;;1.75;;
18783;SDS011;9520;50.954;6.968;2022-09-14T02:21:57;1.70;;;1.60;;
18783;SDS011;9520;50.954;6.968;2022-09-14T02:22:19;1.60;;;1.38;;
18783;SDS011;9520;50.954;6.968;2022-09-14T02:22:42;2.50;;;1.30;;
18783;SDS011;9520;50.954;6.968;2022-09-14T02:23:04;2.88;;;1.42;;
18783;SDS011;9520;50.954;6.968;2022-09-14T02:23:27;3.30;;;1.67;;
18783;SDS011;9520;50.954;6.968;2022-09-14T02:23:49;2.85;;;1.77;;
18783;SDS011;9520;50.954;6.968;2022-09-14T02:24:15;2.55;;;1.50;;
18783;SDS011;9520;50.954;6.968;2022-09-14T02:24:38;3.28;;;1.88;;
18783;SDS011;9520;50.954;6.968;2022-09-14T02:25:00;4.95;;;1.80;;
18783;SDS011;9520;50.954;6.968;2022-09-14T02:25:23;2.17;;;1.52;;
18783;SDS011;9520;50.954;6.968;2022-09-14T02:25:46;3.80;;;1.80;;
18783;SDS011;9520;50.954;6.968;2022-09-14T02:26:14;3.42;;;1.73;;
18783;SDS011;9520;50.954;6.968;2022-09-14T02:26:37;1.70;;;1.10;;
18783;SDS011;9520;50.954;6.968;2022-09-14T02:26:59;3.08;;;1.30;;
18783;SDS011;9520;50.954;6.968;2022-09-14T02:27:23;3.85;;;1.30;;
18783;SDS011;9520;50.954;6.968;2022-09-14T02:27:45;2.58;;;1.52;;
18783;SDS011;9520;50.954;6.968;2022-09-14T02:28:10;1.63;;;1.27;;
18783;SDS011;9520;50.954;6.968;2022-09-14T02:28:32;2.30;;;1.60;;
18783;SDS011;9520;50.954;6.968;2022-09-14T02:28:54;2.30;;;1.55;;
18783;SDS011;9520;50.954;6.968;2022-09-14T02:29:18;3.60;;;1.45;;
18783;SDS011;9520;50.954;6.968;2022-09-14T02:29:46;5.72;;;1.80;;
18783;SDS011;9520;50.954;6.968;2022-09-14T02:30:25;4.47;;;1.48;;
18783;SDS011;9520;50.954;6.968;2022-09-14T02:30:51;2.53;;;1.40;;
18783;SDS011;9520;50.954;6.968;2022-09-14T02:31:26;4.05;;;1.83;;
18783;SDS011;9520;50.954;6.968;2022-09-14T02:32:03;2.78;;;1.67;;
18783;SDS011;9520;50.954;6.968;2022-09-14T02:33:27;3.20;;;1.58;;
18783;SDS011;9520;50.954;6.968;2022-09-14T02:34:02;1.42;;;0.93;;
18783;SDS011;9520;50.954;6.968;2022-09-14T02:34:53;2.33;;;1.38;;
18783;SDS011;9520;50.954;6.968;2022-09-14T02:35:49;3.70;;;1.23;;
18783;SDS011;9520;50.954;6.968;2022-09-14T02:36:27;1.70;;;1.35;;
18783;SDS011;9520;50.954;6.968;2022-09-14T02:37:10;3.72;;;1.75;;
18783;SDS011;9520;50.954;6.968;2022-09-14T02:37:53;6.32;;;1.30;;
18783;SDS011;9520;50.954;6.968;2022-09-14T02:38:33;1.42;;;0.95;;
18783;SDS011;9520;50.954;6.968;2022-09-14T02:39:09;2.08;;;1.20;;
18783;SDS011;9520;50.954;6.968;2022-09-14T02:39:41;3.75;;;1.30;;
18783;SDS011;9520;50.954;6.968;2022-09-14T02:40:12;1.48;;;0.95;;
18783;SDS011;9520;50.954;6.968;2022-09-14T02:40:51;2.00;;;1.20;;